Time;durP1;ratioP1;P1;durP2;ratioP2;P2;SDS_P1;SDS_P2;PMS_P1;PMS_P2;Temp;Humidity;BMP_temperature;BMP_pressure;BME280_temperature;BME280_humidity;BME280_pressure;Samples;Min_cycle;Max_cycle;Signal;HPM_P1;HPM_P2
2022/08/27 00:00:09;;;;;;;0.88;0.50;;;17.90;70.90;;;;;;6247807;22;20425;-73
2022/08/27 00:02:35;;;;;;;2.38;0.50;;;18.00;71.20;;;;;;6247738;22;20035;-73
2022/08/27 00:05:02;;;;;;;0.30;0.30;;;17.80;71.10;;;;;;6248054;22;19996;-73
2022/08/27 00:07:28;;;;;;;0.45;0.40;;;17.80;71.20;;;;;;6247938;22;20058;-74
2022/08/27 00:09:54;;;;;;;0.70;0.40;;;17.70;71.20;;;;;;6274944;22;20015;-73
2022/08/27 00:12:20;;;;;;;0.40;0.40;;;17.70;71.20;;;;;;6275129;22;20011;-73
2022/08/27 00:14:45;;;;;;;0.30;0.30;;;17.70;71.30;;;;;;6247962;22;20438;-73
2022/08/27 00:17:11;;;;;;;0.47;0.47;;;17.60;71.30;;;;;;6274563;22;20003;-74
2022/08/27 00:19:38;;;;;;;0.40;0.22;;;17.60;71.40;;;;;;6247680;22;20004;-73
2022/08/27 00:22:05;;;;;;;0.30;0.30;;;17.60;71.50;;;;;;6274780;22;20375;-73
2022/08/27 00:24:31;;;;;;;0.50;0.30;;;17.60;71.50;;;;;;6274562;22;19996;-74
2022/08/27 00:26:57;;;;;;;0.47;0.40;;;17.60;71.50;;;;;;6275058;22;20309;-73
2022/08/27 00:29:25;;;;;;;0.60;0.40;;;17.50;71.50;;;;;;6275324;22;20003;-73
2022/08/27 00:31:55;;;;;;;0.30;0.30;;;17.50;71.50;;;;;;6275956;22;20057;-73
2022/08/27 00:34:21;;;;;;;0.50;0.28;;;17.50;71.60;;;;;;6246918;22;19999;-73
2022/08/27 00:36:47;;;;;;;0.30;0.30;;;17.50;71.50;;;;;;6274901;22;20007;-73
2022/08/27 00:39:13;;;;;;;0.30;0.30;;;17.50;71.60;;;;;;6274528;22;20310;-73
2022/08/27 00:41:42;;;;;;;0.43;0.30;;;17.40;71.70;;;;;;6271737;22;20003;-73
2022/08/27 00:44:08;;;;;;;0.52;0.50;;;17.40;71.80;;;;;;6274572;22;20431;-73
2022/08/27 00:46:52;;;;;;;0.32;0.32;;;17.40;71.80;;;;;;6222134;22;20439;-73
2022/08/27 00:49:27;;;;;;;0.20;0.20;;;17.40;71.90;;;;;;6275302;22;20002;-73
2022/08/27 00:51:58;;;;;;;0.20;0.20;;;17.40;71.80;;;;;;6247324;22;20011;-73
2022/08/27 00:54:26;;;;;;;0.35;0.35;;;17.30;71.80;;;;;;6274689;22;20000;-73
2022/08/27 00:56:52;;;;;;;0.22;0.22;;;17.30;71.80;;;;;;6247791;22;20428;-73
2022/08/27 00:59:22;;;;;;;0.43;0.30;;;17.30;71.80;;;;;;6247952;22;20007;-74
2022/08/27 01:04:30;;;;;;;;;;;17.30;71.90;;;;;;6251359;22;20332;-73
2022/08/27 01:06:57;;;;;;;0.52;0.35;;;17.30;71.80;;;;;;6274449;22;19899;-73
2022/08/27 01:09:24;;;;;;;0.25;0.25;;;17.20;71.70;;;;;;6247684;22;20034;-73
2022/08/27 01:11:52;;;;;;;0.32;0.30;;;17.30;71.70;;;;;;6274442;22;20075;-73
2022/08/27 01:14:19;;;;;;;0.32;0.30;;;17.20;71.70;;;;;;6274697;22;20058;-74
2022/08/27 01:16:49;;;;;;;0.55;0.30;;;17.20;71.70;;;;;;6247733;22;20000;-73
2022/08/27 01:19:38;;;;;;;1.40;0.32;;;17.20;71.80;;;;;;6274472;22;20000;-73
2022/08/27 01:22:21;;;;;;;0.30;0.30;;;17.20;71.90;;;;;;6274356;22;20065;-73
2022/08/27 01:24:50;;;;;;;0.25;0.20;;;17.20;72.00;;;;;;6249483;22;20046;-73
2022/08/27 01:27:19;;;;;;;0.30;0.30;;;17.10;71.90;;;;;;6274517;22;20149;-73
2022/08/27 01:29:45;;;;;;;0.25;0.25;;;17.10;71.90;;;;;;6222563;22;20015;-73
2022/08/27 01:32:16;;;;;;;1.60;0.40;;;17.20;72.00;;;;;;6274244;22;20003;-73
2022/08/27 01:34:43;;;;;;;0.43;0.40;;;17.10;71.90;;;;;;6275234;22;19995;-73
2022/08/27 01:37:09;;;;;;;0.43;0.30;;;17.20;71.90;;;;;;6274641;22;20003;-73
2022/08/27 01:39:38;;;;;;;0.40;0.30;;;17.20;71.80;;;;;;6274801;22;20026;-73
2022/08/27 01:42:08;;;;;;;0.40;0.40;;;17.20;71.80;;;;;;6274375;22;20126;-73
2022/08/27 01:44:56;;;;;;;0.73;0.38;;;17.20;71.80;;;;;;6275048;22;20007;-73
2022/08/27 01:47:24;;;;;;;0.15;0.10;;;17.30;71.80;;;;;;6274361;22;20075;-73
2022/08/27 01:49:51;;;;;;;0.65;0.50;;;17.20;71.70;;;;;;6246833;22;20431;-73
2022/08/27 01:52:19;;;;;;;0.25;0.25;;;17.30;71.80;;;;;;6246946;22;20016;-73
2022/08/27 01:54:47;;;;;;;0.35;0.35;;;17.20;71.70;;;;;;6247410;22;20015;-73
2022/08/27 01:57:13;;;;;;;0.93;0.40;;;17.20;71.70;;;;;;6274757;22;20077;-73
2022/08/27 01:59:39;;;;;;;0.30;0.30;;;17.30;71.70;;;;;;6247447;22;20008;-73
2022/08/27 02:02:06;;;;;;;0.20;0.20;;;17.30;71.70;;;;;;6246986;22;20010;-73
2022/08/27 02:04:33;;;;;;;0.28;0.28;;;17.30;71.70;;;;;;6274498;22;20004;-73
2022/08/27 02:06:59;;;;;;;0.30;0.30;;;17.30;71.60;;;;;;6247433;22;20018;-73
2022/08/27 02:09:25;;;;;;;0.32;0.32;;;17.30;71.60;;;;;;6274648;22;20416;-73
2022/08/27 02:11:51;;;;;;;0.38;0.38;;;17.20;71.50;;;;;;6247049;22;20031;-73
2022/08/27 02:14:19;;;;;;;0.38;0.38;;;17.30;71.60;;;;;;6273823;22;20083;-73
2022/08/27 02:16:45;;;;;;;0.45;0.40;;;17.40;71.60;;;;;;6247329;22;20003;-73
2022/08/27 02:19:11;;;;;;;0.32;0.32;;;17.40;71.60;;;;;;6273953;22;20004;-73
2022/08/27 02:21:37;;;;;;;0.68;0.40;;;17.40;71.60;;;;;;6274139;22;20000;-73
2022/08/27 02:24:03;;;;;;;0.57;0.30;;;17.40;71.60;;;;;;6247775;22;20014;-73
2022/08/27 02:26:29;;;;;;;0.40;0.40;;;17.40;71.60;;;;;;6274389;22;20053;-73
2022/08/27 02:28:55;;;;;;;0.47;0.35;;;17.40;71.60;;;;;;6274129;22;20015;-73
2022/08/27 02:31:22;;;;;;;1.02;0.30;;;17.30;71.60;;;;;;6246729;22;20035;-73
2022/08/27 02:33:48;;;;;;;0.35;0.30;;;17.40;71.60;;;;;;6274494;22;20007;-73
2022/08/27 02:36:14;;;;;;;0.40;0.30;;;17.40;71.60;;;;;;6275063;22;20006;-73
2022/08/27 02:38:41;;;;;;;0.32;0.30;;;17.30;71.60;;;;;;6275845;22;20010;-73
2022/08/27 02:41:07;;;;;;;0.85;0.35;;;17.30;71.60;;;;;;6275630;22;20607;-73
2022/08/27 02:43:33;;;;;;;0.30;0.30;;;17.40;71.60;;;;;;6248511;22;20000;-73
2022/08/27 02:46:00;;;;;;;0.22;0.22;;;17.40;71.70;;;;;;6275149;22;20039;-73
2022/08/27 02:48:26;;;;;;;0.40;0.30;;;17.40;71.70;;;;;;6274825;22;20463;-73
2022/08/27 02:50:52;;;;;;;0.40;0.40;;;17.30;71.70;;;;;;6248367;22;19999;-73
2022/08/27 02:53:18;;;;;;;0.75;0.40;;;17.30;71.70;;;;;;6275097;22;20007;-73
2022/08/27 02:55:44;;;;;;;0.25;0.25;;;17.30;71.70;;;;;;6275328;22;20361;-73
2022/08/27 02:58:14;;;;;;;1.00;0.40;;;17.30;71.70;;;;;;6248075;22;20000;-73
2022/08/27 03:00:40;;;;;;;0.40;0.40;;;17.30;71.70;;;;;;6274752;22;20008;-73
2022/08/27 03:03:06;;;;;;;0.30;0.30;;;17.30;71.80;;;;;;6247249;22;20302;-72
2022/08/27 03:05:31;;;;;;;1.17;0.40;;;17.30;71.80;;;;;;6275998;22;20367;-73
2022/08/27 03:07:58;;;;;;;0.60;0.30;;;17.30;71.80;;;;;;6275411;22;20000;-73
2022/08/27 03:10:24;;;;;;;0.38;0.38;;;17.20;71.80;;;;;;6249070;22;20007;-73
2022/08/27 03:12:50;;;;;;;0.90;0.40;;;17.30;71.90;;;;;;6247926;22;20027;-73
2022/08/27 03:15:18;;;;;;;0.30;0.30;;;17.20;72.00;;;;;;6275323;22;20034;-73
2022/08/27 03:20:21;;;;;;;0.40;0.40;;;17.20;71.90;;;;;;6250726;22;20016;-73
2022/08/27 03:22:47;;;;;;;0.30;0.30;;;17.20;71.90;;;;;;6248352;22;20000;-73
2022/08/27 03:25:12;;;;;;;0.60;0.47;;;17.20;71.90;;;;;;6247925;22;20419;-73
2022/08/27 03:27:39;;;;;;;0.77;0.40;;;17.10;71.80;;;;;;6247902;22;19999;-73
2022/08/27 03:30:09;;;;;;;0.57;0.43;;;17.20;71.80;;;;;;6275237;22;20026;-74
2022/08/27 03:32:35;;;;;;;0.57;0.40;;;17.20;71.80;;;;;;6275085;22;20339;-73
2022/08/27 03:35:02;;;;;;;0.52;0.40;;;17.20;71.70;;;;;;6274623;22;20099;-73
2022/08/27 03:37:29;;;;;;;0.30;0.30;;;17.20;71.70;;;;;;6245449;22;20034;-73
2022/08/27 03:39:54;;;;;;;0.60;0.30;;;17.20;71.70;;;;;;6271704;22;20061;-73
2022/08/27 03:42:21;;;;;;;0.77;0.45;;;17.20;71.70;;;;;;6248015;22;20070;-73
2022/08/27 03:44:47;;;;;;;0.40;0.40;;;17.20;71.60;;;;;;6247767;22;20004;-73
2022/08/27 03:47:14;;;;;;;0.30;0.30;;;17.20;71.60;;;;;;6275515;22;20065;-73
2022/08/27 03:49:40;;;;;;;0.28;0.20;;;17.20;71.60;;;;;;6275453;22;20004;-73
2022/08/27 03:52:07;;;;;;;0.98;0.30;;;17.30;71.60;;;;;;6275558;22;20003;-73
2022/08/27 03:54:35;;;;;;;0.20;0.20;;;17.20;71.60;;;;;;6247806;22;20420;-73
2022/08/27 03:57:01;;;;;;;0.35;0.32;;;17.20;71.60;;;;;;6275195;22;20129;-74
2022/08/27 03:59:27;;;;;;;0.77;0.40;;;17.20;71.60;;;;;;6274592;22;20011;-73
2022/08/27 04:01:53;;;;;;;0.32;0.32;;;17.20;71.70;;;;;;6275263;22;20417;-73
2022/08/27 04:04:19;;;;;;;0.50;0.40;;;17.20;71.70;;;;;;6248938;22;20067;-73
2022/08/27 04:06:44;;;;;;;0.40;0.38;;;17.10;71.70;;;;;;6274825;22;20436;-73
2022/08/27 04:09:10;;;;;;;1.10;0.50;;;17.10;71.70;;;;;;6275315;22;20000;-73
2022/08/27 04:11:36;;;;;;;0.30;0.30;;;17.10;71.70;;;;;;6275460;22;20003;-74
2022/08/27 04:14:04;;;;;;;0.60;0.50;;;17.10;71.70;;;;;;6275185;22;20004;-73
2022/08/27 04:16:31;;;;;;;0.38;0.38;;;17.20;71.70;;;;;;6248126;22;20443;-73
2022/08/27 04:18:57;;;;;;;0.30;0.30;;;17.20;71.70;;;;;;6272581;22;20413;-73
2022/08/27 04:21:23;;;;;;;0.40;0.40;;;17.10;71.70;;;;;;6248955;22;20008;-73
2022/08/27 04:23:48;;;;;;;0.45;0.45;;;17.20;71.70;;;;;;6275417;22;20404;-73
2022/08/27 04:26:15;;;;;;;0.32;0.30;;;17.20;71.70;;;;;;6248083;22;20094;-73
2022/08/27 04:28:41;;;;;;;0.43;0.40;;;17.10;71.70;;;;;;6275682;22;20008;-73
2022/08/27 04:31:08;;;;;;;0.90;0.60;;;17.00;71.70;;;;;;6275344;22;20049;-73
2022/08/27 04:33:34;;;;;;;0.45;0.45;;;17.10;71.80;;;;;;6248577;22;20007;-73
2022/08/27 04:36:03;;;;;;;0.20;0.20;;;17.10;71.80;;;;;;6275147;22;20027;-73
2022/08/27 04:38:28;;;;;;;0.38;0.22;;;17.10;71.80;;;;;;6275398;22;20031;-73
2022/08/27 04:43:35;;;;;;;0.50;0.50;;;17.00;71.80;;;;;;6251480;22;20008;-73
2022/08/27 04:46:01;;;;;;;1.05;0.60;;;17.00;71.80;;;;;;6274929;22;20313;-73
2022/08/27 04:48:27;;;;;;;0.73;0.43;;;17.00;71.90;;;;;;6275671;22;20302;-73
2022/08/27 04:50:53;;;;;;;0.82;0.40;;;17.00;71.90;;;;;;6247933;22;19996;-73
2022/08/27 04:53:19;;;;;;;0.63;0.43;;;17.00;72.00;;;;;;6275062;22;20004;-73
2022/08/27 04:55:49;;;;;;;0.40;0.40;;;16.90;72.10;;;;;;6274563;22;20027;-73
2022/08/27 04:58:16;;;;;;;0.65;0.30;;;16.90;72.20;;;;;;6275228;22;20011;-73
2022/08/27 05:00:47;;;;;;;2.28;0.70;;;16.80;72.20;;;;;;6274870;22;20374;-73
2022/08/27 05:03:15;;;;;;;1.50;0.57;;;16.80;72.40;;;;;;6275071;22;20034;-73
2022/08/27 05:05:42;;;;;;;0.82;0.40;;;16.70;72.50;;;;;;6247990;22;20007;-73
2022/08/27 05:08:11;;;;;;;0.40;0.40;;;16.70;72.60;;;;;;6274741;22;19996;-74
2022/08/27 05:10:42;;;;;;;0.40;0.40;;;16.70;72.70;;;;;;6249257;22;20018;-74
2022/08/27 05:13:08;;;;;;;0.82;0.50;;;16.60;72.80;;;;;;6248369;22;20073;-73
2022/08/27 05:15:34;;;;;;;0.63;0.43;;;16.50;72.80;;;;;;6274652;22;20014;-73
2022/08/27 05:18:01;;;;;;;0.50;0.40;;;16.50;72.90;;;;;;6274708;22;20007;-73
2022/08/27 05:20:27;;;;;;;0.57;0.40;;;16.50;72.90;;;;;;6247669;22;20027;-73
2022/08/27 05:22:53;;;;;;;0.40;0.40;;;16.50;73.00;;;;;;6274877;22;20011;-74
2022/08/27 05:25:19;;;;;;;0.60;0.47;;;16.40;72.90;;;;;;6246113;22;20008;-73
2022/08/27 05:27:44;;;;;;;0.47;0.30;;;16.50;73.10;;;;;;6247896;22;20455;-73
2022/08/27 05:30:11;;;;;;;1.52;0.50;;;16.40;73.00;;;;;;6274533;22;20438;-73
2022/08/27 05:32:38;;;;;;;0.40;0.40;;;16.60;73.10;;;;;;6274934;22;20058;-73
2022/08/27 05:35:05;;;;;;;0.50;0.50;;;16.50;73.10;;;;;;6274626;22;20007;-73
2022/08/27 05:37:32;;;;;;;0.43;0.43;;;16.40;73.10;;;;;;6274700;22;19999;-73
2022/08/27 05:39:59;;;;;;;0.82;0.50;;;16.40;73.10;;;;;;6275085;22;20562;-73
2022/08/27 05:42:25;;;;;;;0.88;0.40;;;16.40;73.10;;;;;;6247911;22;20454;-73
2022/08/27 05:44:51;;;;;;;0.63;0.50;;;16.40;73.70;;;;;;6247312;22;20011;-73
2022/08/27 05:47:17;;;;;;;0.43;0.43;;;16.40;73.10;;;;;;6247531;22;20000;-73
2022/08/27 05:49:44;;;;;;;0.93;0.50;;;16.40;73.10;;;;;;6247079;22;20364;-73
2022/08/27 05:52:10;;;;;;;0.85;0.63;;;16.50;73.00;;;;;;6248040;22;20000;-73
2022/08/27 05:54:37;;;;;;;1.27;0.63;;;16.50;72.90;;;;;;6247573;22;20059;-73
2022/08/27 05:57:03;;;;;;;0.50;0.47;;;16.50;72.80;;;;;;6274852;22;20003;-73
2022/08/27 06:02:12;;;;;;;0.47;0.47;;;16.50;72.70;;;;;;6272724;22;20018;-73
2022/08/27 06:04:38;;;;;;;1.00;0.30;;;16.50;72.70;;;;;;6274915;22;20019;-73
2022/08/27 06:07:05;;;;;;;0.40;0.40;;;16.50;72.70;;;;;;6247409;22;20034;-73
2022/08/27 06:09:31;;;;;;;1.17;0.50;;;16.50;72.70;;;;;;6275743;22;20015;-73
2022/08/27 06:12:00;;;;;;;0.55;0.52;;;16.60;72.60;;;;;;6273068;22;20016;-73
2022/08/27 06:14:26;;;;;;;0.98;0.50;;;16.60;72.50;;;;;;6276305;22;20011;-73
2022/08/27 06:16:52;;;;;;;0.82;0.60;;;16.70;72.50;;;;;;6248545;22;20007;-73
2022/08/27 06:19:18;;;;;;;0.43;0.43;;;16.70;72.40;;;;;;6275491;22;20011;-73
2022/08/27 06:21:44;;;;;;;0.40;0.40;;;16.70;72.40;;;;;;6274906;22;20007;-73
2022/08/27 06:24:11;;;;;;;0.77;0.60;;;16.70;72.40;;;;;;6276012;22;20482;-74
2022/08/27 06:26:39;;;;;;;0.40;0.40;;;16.80;72.40;;;;;;6275341;22;20004;-73
2022/08/27 06:29:07;;;;;;;0.30;0.30;;;16.80;72.20;;;;;;6275935;22;19999;-73
2022/08/27 06:31:34;;;;;;;0.60;0.50;;;16.80;72.20;;;;;;6248768;22;20327;-73
2022/08/27 06:34:03;;;;;;;0.55;0.40;;;16.80;72.10;;;;;;6277672;22;20027;-73
2022/08/27 06:36:29;;;;;;;0.40;0.40;;;16.90;72.10;;;;;;6249286;22;20004;-73
2022/08/27 06:38:56;;;;;;;0.40;0.40;;;17.00;71.90;;;;;;6223434;22;19999;-73
2022/08/27 06:41:25;;;;;;;0.90;0.45;;;17.00;71.80;;;;;;6275701;22;20007;-73
2022/08/27 06:43:53;;;;;;;0.32;0.30;;;17.10;71.70;;;;;;6275909;22;20027;-73
2022/08/27 06:46:22;;;;;;;0.30;0.30;;;17.20;72.30;;;;;;6275865;22;20000;-73
2022/08/27 06:48:52;;;;;;;0.77;0.50;;;17.20;71.50;;;;;;6222801;22;20022;-73
2022/08/27 06:51:23;;;;;;;0.50;0.40;;;17.30;71.40;;;;;;6247549;22;20663;-73
2022/08/27 06:53:49;;;;;;;0.50;0.40;;;17.30;71.30;;;;;;6275633;22;20011;-74
2022/08/27 06:56:16;;;;;;;0.40;0.35;;;17.30;71.20;;;;;;6273151;22;20027;-74
2022/08/27 06:58:42;;;;;;;0.40;0.40;;;17.40;71.20;;;;;;6275615;22;20042;-74
2022/08/27 07:01:18;;;;;;;0.50;0.43;;;17.50;71.10;;;;;;6248293;22;20011;-74
2022/08/27 07:03:44;;;;;;;0.77;0.50;;;17.50;70.90;;;;;;6276073;22;20031;-74
2022/08/27 07:06:12;;;;;;;0.30;0.30;;;17.60;70.80;;;;;;6248373;22;20007;-74
2022/08/27 07:08:38;;;;;;;0.80;0.40;;;17.60;70.70;;;;;;6249026;22;20008;-74
2022/08/27 07:11:05;;;;;;;0.50;0.40;;;17.70;70.60;;;;;;6248671;22;20095;-74
2022/08/27 07:13:32;;;;;;;0.57;0.30;;;17.70;70.50;;;;;;6275383;22;20382;-74
2022/08/27 07:15:57;;;;;;;0.80;0.60;;;17.80;70.40;;;;;;6275858;22;20000;-74
2022/08/27 07:18:24;;;;;;;0.50;0.40;;;17.80;70.30;;;;;;6275693;22;20042;-74
2022/08/27 07:20:53;;;;;;;0.40;0.30;;;17.90;70.30;;;;;;6275019;22;20015;-74
2022/08/27 07:23:19;;;;;;;0.55;0.40;;;17.80;70.10;;;;;;6246951;22;20067;-74
2022/08/27 07:25:45;;;;;;;1.20;0.70;;;17.90;70.10;;;;;;6276086;22;20073;-74
2022/08/27 07:28:10;;;;;;;0.85;0.47;;;18.00;70.10;;;;;;6275677;22;20415;-74
2022/08/27 07:30:36;;;;;;;0.85;0.50;;;18.00;70.00;;;;;;6275082;22;20012;-74
2022/08/27 07:33:03;;;;;;;0.40;0.40;;;18.00;70.00;;;;;;6248493;22;20057;-74
2022/08/27 07:35:30;;;;;;;0.47;0.30;;;18.10;70.00;;;;;;6275248;22;20076;-74
2022/08/27 07:37:56;;;;;;;0.45;0.40;;;18.20;69.80;;;;;;6275760;22;20042;-73
2022/08/27 07:40:23;;;;;;;0.73;0.47;;;18.20;69.70;;;;;;6248236;22;20310;-74
2022/08/27 07:45:33;;;;;;;0.40;0.40;;;18.40;69.50;;;;;;6275145;22;20091;-74
2022/08/27 07:47:58;;;;;;;0.32;0.30;;;18.40;69.20;;;;;;6248147;22;20007;-74
2022/08/27 07:50:24;;;;;;;0.93;0.40;;;18.50;69.10;;;;;;6274729;22;20382;-74
2022/08/27 07:52:50;;;;;;;0.65;0.40;;;18.60;68.90;;;;;;6248139;22;20008;-74
2022/08/27 07:55:16;;;;;;;0.77;0.30;;;18.60;68.80;;;;;;6247791;22;20041;-74
2022/08/27 07:57:43;;;;;;;0.65;0.40;;;18.70;68.70;;;;;;6223002;22;20055;-74
2022/08/27 08:00:09;;;;;;;0.22;0.22;;;18.70;68.60;;;;;;6248614;22;20029;-73
2022/08/27 08:02:36;;;;;;;0.40;0.30;;;18.80;68.60;;;;;;6247206;22;20026;-74
2022/08/27 08:05:04;;;;;;;0.30;0.30;;;18.90;68.30;;;;;;6275047;22;20008;-74
2022/08/27 08:07:32;;;;;;;0.88;0.40;;;19.10;68.30;;;;;;6274994;22;19999;-74
2022/08/27 08:09:58;;;;;;;0.70;0.35;;;19.20;68.00;;;;;;6274925;22;20381;-74
2022/08/27 08:12:24;;;;;;;0.82;0.40;;;19.40;67.70;;;;;;6275157;22;20004;-74
2022/08/27 08:14:52;;;;;;;0.30;0.30;;;19.60;67.30;;;;;;6248648;22;20014;-74
2022/08/27 08:17:17;;;;;;;0.60;0.47;;;19.80;66.80;;;;;;6275406;22;20027;-73
2022/08/27 08:19:43;;;;;;;0.32;0.32;;;20.10;66.40;;;;;;6275006;22;20008;-74
2022/08/27 08:22:09;;;;;;;0.20;0.20;;;20.30;66.00;;;;;;6275061;22;19999;-74
2022/08/27 08:24:35;;;;;;;0.60;0.30;;;20.40;65.80;;;;;;6275751;22;20030;-74
2022/08/27 08:27:01;;;;;;;0.35;0.35;;;20.50;65.60;;;;;;6247880;22;20023;-74
2022/08/27 08:29:26;;;;;;;0.60;0.40;;;20.60;65.40;;;;;;6275258;22;20004;-74
2022/08/27 08:31:52;;;;;;;0.30;0.30;;;20.70;65.40;;;;;;6274214;22;20014;-75
2022/08/27 08:34:18;;;;;;;0.30;0.30;;;20.80;65.30;;;;;;6275164;22;20004;-74
2022/08/27 08:36:44;;;;;;;0.20;0.20;;;20.80;65.10;;;;;;6247086;22;20487;-75
2022/08/27 08:39:10;;;;;;;0.30;0.30;;;20.80;65.30;;;;;;6274884;22;20032;-74
2022/08/27 08:41:42;;;;;;;1.17;0.32;;;20.80;65.40;;;;;;6269701;22;20007;-74
2022/08/27 08:44:19;;;;;;;0.70;0.40;;;20.70;66.20;;;;;;6247835;22;20424;-74
2022/08/27 08:46:54;;;;;;;0.55;0.38;;;20.60;65.60;;;;;;6274584;22;20015;-74
2022/08/27 08:49:31;;;;;;;0.30;0.30;;;20.60;65.90;;;;;;6275125;22;20082;-74
2022/08/27 08:52:10;;;;;;;0.50;0.30;;;20.50;66.00;;;;;;6276038;22;19995;-73
2022/08/27 08:54:37;;;;;;;0.28;0.28;;;20.50;66.10;;;;;;6247803;22;20003;-73
2022/08/27 08:57:17;;;;;;;0.55;0.40;;;20.50;66.80;;;;;;6275128;22;20509;-74
2022/08/27 08:59:48;;;;;;;0.32;0.30;;;20.50;66.20;;;;;;6247353;22;20310;-74
2022/08/27 09:02:14;;;;;;;0.98;0.30;;;20.50;66.20;;;;;;6274493;22;20039;-74
2022/08/27 09:04:42;;;;;;;0.30;0.30;;;20.50;66.20;;;;;;6275789;22;20007;-74
2022/08/27 09:07:17;;;;;;;0.25;0.25;;;20.60;66.30;;;;;;6275376;22;20042;-74
2022/08/27 09:09:53;;;;;;;0.80;0.30;;;20.80;66.00;;;;;;6222479;22;20408;-74
2022/08/27 09:12:23;;;;;;;0.82;0.30;;;21.00;65.30;;;;;;6275229;22;20003;-73
2022/08/27 09:14:57;;;;;;;0.65;0.50;;;21.10;64.90;;;;;;6247759;22;20008;-74
2022/08/27 09:17:24;;;;;;;0.60;0.20;;;21.10;64.80;;;;;;6275840;22;20083;-73
2022/08/27 09:19:49;;;;;;;0.55;0.38;;;21.20;65.00;;;;;;6275063;22;20016;-74
2022/08/27 09:22:39;;;;;;;0.52;0.50;;;21.10;64.90;;;;;;6248436;22;20496;-74
2022/08/27 09:25:26;;;;;;;0.28;0.28;;;21.10;64.80;;;;;;6250993;22;20078;-74
2022/08/27 09:28:00;;;;;;;0.25;0.25;;;21.10;64.90;;;;;;6247844;22;20146;-74
2022/08/27 09:30:30;;;;;;;1.05;0.30;;;21.10;65.00;;;;;;6275546;22;20050;-74
2022/08/27 09:32:59;;;;;;;;;;;21.20;64.90;;;;;;6248369;22;20019;-74
2022/08/27 09:35:27;;;;;;;0.20;0.20;;;21.20;64.90;;;;;;6247812;22;19911;-74
2022/08/27 09:37:54;;;;;;;1.58;0.40;;;21.20;64.70;;;;;;6274883;22;20103;-74
2022/08/27 09:40:32;;;;;;;0.57;0.38;;;21.30;64.60;;;;;;6274799;22;20008;-74
2022/08/27 09:43:07;;;;;;;0.20;0.20;;;21.30;64.50;;;;;;6274742;22;20420;-74
2022/08/27 09:45:34;;;;;;;0.32;0.30;;;21.40;64.50;;;;;;6248809;22;20004;-74
2022/08/27 09:48:09;;;;;;;0.40;0.32;;;21.60;64.30;;;;;;6274754;22;20067;-73
2022/08/27 09:50:41;;;;;;;0.60;0.30;;;21.70;63.80;;;;;;6249027;22;20016;-74
2022/08/27 09:53:19;;;;;;;0.45;0.35;;;21.90;63.40;;;;;;6247585;22;20011;-74
2022/08/27 09:55:56;;;;;;;0.30;0.30;;;22.00;63.10;;;;;;6274908;22;20058;-74
2022/08/27 09:58:33;;;;;;;0.20;0.20;;;22.30;62.80;;;;;;6274922;22;20011;-74
2022/08/27 10:01:04;;;;;;;0.30;0.30;;;22.60;62.30;;;;;;6275061;22;20087;-73
2022/08/27 10:03:31;;;;;;;0.50;0.30;;;22.70;61.90;;;;;;6247573;22;20007;-73
2022/08/27 10:06:00;;;;;;;0.40;0.30;;;22.80;61.70;;;;;;6276132;22;20367;-74
2022/08/27 10:08:38;;;;;;;0.47;0.40;;;22.70;61.80;;;;;;6278578;22;20030;-74
2022/08/27 10:11:19;;;;;;;0.40;0.30;;;22.60;62.00;;;;;;6221859;22;20011;-74
2022/08/27 10:14:10;;;;;;;0.82;0.30;;;22.60;62.20;;;;;;6274899;22;20019;-74
2022/08/27 10:17:00;;;;;;;0.65;0.40;;;22.50;62.40;;;;;;6248353;22;20007;-74
2022/08/27 10:19:45;;;;;;;0.20;0.20;;;22.50;62.50;;;;;;6247391;22;20027;-74
2022/08/27 10:22:24;;;;;;;0.32;0.32;;;22.40;62.50;;;;;;6247033;22;20090;-74
2022/08/27 10:25:10;;;;;;;0.52;0.25;;;22.50;62.60;;;;;;6245462;22;20042;-75
2022/08/27 10:27:59;;;;;;;0.60;0.30;;;22.40;62.40;;;;;;6247219;22;20007;-74
2022/08/27 10:30:37;;;;;;;0.35;0.35;;;22.40;62.50;;;;;;6252479;22;20030;-74
2022/08/27 10:33:18;;;;;;;0.45;0.30;;;22.40;62.50;;;;;;6247236;22;20000;-75
2022/08/27 10:35:54;;;;;;;0.30;0.30;;;22.40;62.50;;;;;;6247118;22;20454;-74
2022/08/27 10:38:40;;;;;;;0.30;0.30;;;22.40;62.60;;;;;;6274515;22;20004;-74
2022/08/27 10:41:16;;;;;;;1.80;0.35;;;22.40;62.70;;;;;;6243990;22;20433;-74
2022/08/27 10:44:21;;;;;;;0.75;0.32;;;22.40;62.50;;;;;;6271120;22;20007;-74
2022/08/27 10:47:12;;;;;;;0.30;0.30;;;22.40;62.40;;;;;;6273963;22;20004;-74
2022/08/27 10:49:57;;;;;;;0.45;0.30;;;22.50;62.30;;;;;;6250795;22;20002;-74
2022/08/27 10:52:45;;;;;;;0.25;0.25;;;22.50;62.20;;;;;;6248975;22;20015;-74
2022/08/27 10:55:30;;;;;;;0.32;0.30;;;22.60;62.20;;;;;;6275419;22;20003;-74
2022/08/27 10:58:31;;;;;;;0.40;0.30;;;22.60;62.80;;;;;;6248171;22;20061;-75
2022/08/27 11:01:11;;;;;;;0.40;0.40;;;22.60;61.90;;;;;;6275387;22;20016;-74
2022/08/27 11:04:01;;;;;;;0.20;0.20;;;22.80;61.90;;;;;;6275423;22;20030;-74
2022/08/27 11:06:35;;;;;;;0.30;0.28;;;22.80;61.80;;;;;;6276021;22;20010;-74
2022/08/27 11:09:10;;;;;;;0.22;0.22;;;22.90;61.60;;;;;;6275441;22;20016;-74
2022/08/27 11:11:40;;;;;;;0.30;0.30;;;23.00;61.30;;;;;;6242655;22;20016;-74
2022/08/27 11:14:13;;;;;;;0.75;0.30;;;23.10;61.10;;;;;;6275410;22;20034;-74
2022/08/27 11:16:46;;;;;;;0.20;0.20;;;23.00;60.90;;;;;;6248050;22;20007;-74
2022/08/27 11:19:26;;;;;;;0.20;0.20;;;23.10;60.90;;;;;;6275438;22;20121;-74
2022/08/27 11:22:06;;;;;;;1.77;0.50;;;23.00;61.10;;;;;;6275406;22;20099;-74
2022/08/27 11:24:41;;;;;;;0.63;0.43;;;23.00;61.10;;;;;;6249535;22;20003;-74
2022/08/27 11:27:08;;;;;;;1.10;0.40;;;22.90;61.00;;;;;;6248571;22;20031;-74
2022/08/27 11:29:45;;;;;;;0.30;0.30;;;22.80;61.20;;;;;;6275856;22;20460;-74
2022/08/27 11:32:42;;;;;;;1.48;0.45;;;22.90;61.20;;;;;;6248364;22;20075;-74
2022/08/27 11:35:17;;;;;;;0.20;0.20;;;22.90;61.10;;;;;;6275933;22;19996;-74
2022/08/27 11:38:02;;;;;;;0.95;0.40;;;23.00;60.90;;;;;;6275433;22;20432;-74
2022/08/27 11:40:53;;;;;;;0.93;0.40;;;23.10;60.70;;;;;;6275267;22;20012;-74
2022/08/27 11:43:23;;;;;;;0.30;0.30;;;23.10;60.50;;;;;;6275186;22;20420;-74
2022/08/27 11:46:05;;;;;;;0.75;0.30;;;23.10;60.50;;;;;;6249073;22;19999;-74
2022/08/27 11:48:37;;;;;;;0.63;0.40;;;23.10;60.50;;;;;;6248100;22;20003;-74
2022/08/27 11:51:10;;;;;;;1.05;0.40;;;23.10;60.50;;;;;;6248544;22;20093;-74
2022/08/27 11:53:39;;;;;;;0.75;0.40;;;23.20;60.20;;;;;;6275110;22;20062;-74
2022/08/27 11:56:35;;;;;;;0.35;0.35;;;23.50;59.80;;;;;;6275948;22;20011;-74
2022/08/27 11:59:20;;;;;;;0.38;0.30;;;23.60;59.20;;;;;;6248693;22;20008;-74
2022/08/27 12:01:47;;;;;;;0.52;0.40;;;23.60;59.30;;;;;;6247785;22;20015;-74
2022/08/27 12:04:34;;;;;;;0.45;0.30;;;23.40;59.40;;;;;;6248736;22;20007;-75
2022/08/27 12:07:05;;;;;;;0.40;0.40;;;23.30;59.70;;;;;;6247702;22;20082;-74
2022/08/27 12:09:53;;;;;;;0.35;0.30;;;23.30;59.90;;;;;;6275694;22;20003;-74
2022/08/27 12:12:34;;;;;;;0.30;0.30;;;23.10;60.00;;;;;;6248530;22;20054;-74
2022/08/27 12:15:16;;;;;;;1.10;0.47;;;23.10;60.30;;;;;;6246185;22;20034;-74
2022/08/27 12:17:57;;;;;;;0.40;0.40;;;23.00;60.30;;;;;;6275506;22;20066;-74
2022/08/27 12:20:44;;;;;;;0.65;0.35;;;22.90;60.40;;;;;;6248447;22;20038;-74
2022/08/27 12:26:25;;;;;;;0.40;0.40;;;23.00;60.40;;;;;;6275193;22;20004;-74
2022/08/27 12:29:05;;;;;;;0.40;0.40;;;23.00;60.40;;;;;;6275202;22;20003;-73
2022/08/27 12:31:34;;;;;;;0.30;0.30;;;23.00;60.20;;;;;;6275258;22;20007;-73
2022/08/27 12:34:00;;;;;;;0.35;0.30;;;23.10;60.00;;;;;;6248442;22;20027;-74
2022/08/27 12:36:27;;;;;;;0.63;0.47;;;23.20;59.90;;;;;;6275689;22;20416;-74
2022/08/27 12:38:56;;;;;;;0.90;0.45;;;23.30;59.80;;;;;;6275198;22;20004;-74
2022/08/27 12:41:30;;;;;;;0.32;0.30;;;23.40;59.60;;;;;;6248360;22;20026;-74
2022/08/27 12:44:04;;;;;;;0.40;0.40;;;23.40;59.50;;;;;;6247800;22;20023;-74
2022/08/27 12:46:30;;;;;;;0.40;0.40;;;23.40;59.40;;;;;;6269970;22;20431;-74
2022/08/27 12:49:01;;;;;;;0.40;0.30;;;23.50;59.40;;;;;;6222764;22;20452;-74
2022/08/27 12:51:34;;;;;;;0.52;0.30;;;23.50;59.30;;;;;;6247637;22;20474;-74
2022/08/27 12:54:30;;;;;;;0.28;0.28;;;23.50;59.20;;;;;;6275037;22;20090;-74
2022/08/27 12:57:26;;;;;;;0.30;0.30;;;23.50;59.20;;;;;;6244694;22;20443;-73
2022/08/27 13:00:09;;;;;;;0.65;0.30;;;23.50;59.10;;;;;;6253711;22;20007;-74
2022/08/27 13:02:54;;;;;;;0.45;0.40;;;23.50;59.00;;;;;;6249594;22;20034;-74
2022/08/27 13:05:21;;;;;;;0.75;0.40;;;23.60;59.00;;;;;;6248284;22;20026;-74
2022/08/27 13:07:49;;;;;;;0.32;0.30;;;23.60;58.90;;;;;;6248466;22;20058;-74
2022/08/27 13:10:19;;;;;;;0.68;0.30;;;23.70;58.90;;;;;;6274579;22;20007;-74
2022/08/27 13:12:47;;;;;;;0.98;0.30;;;23.80;58.80;;;;;;6274849;22;20102;-74
2022/08/27 13:15:15;;;;;;;0.73;0.40;;;23.80;58.70;;;;;;6274963;22;20003;-74
2022/08/27 13:17:43;;;;;;;0.95;0.50;;;23.80;58.60;;;;;;6274589;22;20008;-74
2022/08/27 13:20:23;;;;;;;0.75;0.32;;;23.80;58.60;;;;;;6274639;22;20035;-74